createdAt,value
2018-09-14T00:01:45.370Z,98801.15
2018-09-14T00:04:13.522Z,98799.81
2018-09-14T00:06:41.766Z,98802.50
2018-09-14T00:09:14.186Z,98803.84
2018-09-14T00:11:42.886Z,98805.64
2018-09-14T00:14:11.199Z,98804.78
2018-09-14T00:16:39.390Z,98810.16
2018-09-14T00:19:07.667Z,98804.78
2018-09-14T00:21:36.099Z,98802.59
2018-09-14T00:24:04.339Z,98800.38
2018-09-14T00:26:32.570Z,98806.62
2018-09-14T00:29:00.770Z,98802.59
2018-09-14T00:31:29.011Z,98800.75
2018-09-14T00:33:57.239Z,98799.05
2018-09-14T00:36:25.426Z,98799.41
2018-09-14T00:38:53.665Z,98805.27
2018-09-14T00:41:21.995Z,98797.20
2018-09-14T00:43:50.316Z,98795.38
2018-09-14T00:46:18.466Z,98792.90
2018-09-14T00:48:46.759Z,98792.81
2018-09-14T00:51:15.006Z,98794.52
2018-09-14T00:53:43.302Z,98786.94
2018-09-14T00:56:11.527Z,98791.34
2018-09-14T00:58:39.706Z,98789.14
2018-09-14T01:01:07.986Z,98793.66
2018-09-14T01:03:36.170Z,98789.63
2018-09-14T01:06:04.446Z,98790.13
2018-09-14T01:08:32.667Z,98791.92
2018-09-14T01:11:00.856Z,98789.63
2018-09-14T01:16:19.666Z,98789.72
2018-09-14T01:18:47.881Z,98791.92
2018-09-14T01:21:16.095Z,98792.31
2018-09-14T01:23:44.302Z,98791.92
2018-09-14T01:26:12.542Z,98792.31
2018-09-14T01:28:40.770Z,98785.20
2018-09-14T01:31:08.966Z,98786.17
2018-09-14T01:33:37.146Z,98785.69
2018-09-14T01:36:12.299Z,98785.69
2018-09-14T01:38:41.202Z,98788.38
2018-09-14T01:41:09.870Z,98788.86
2018-09-14T01:43:38.187Z,98782.14
2018-09-14T01:46:06.627Z,98783.85
2018-09-14T01:48:34.852Z,98783.85
2018-09-14T01:51:03.080Z,98778.47
2018-09-14T01:53:31.296Z,98781.16
2018-09-14T01:55:59.511Z,98775.78
2018-09-14T01:58:27.702Z,98779.36
2018-09-14T02:00:55.918Z,98777.12
2018-09-14T02:03:24.276Z,98779.82
2018-09-14T02:05:52.462Z,98780.80
2018-09-14T02:08:20.667Z,98776.27
2018-09-14T02:10:48.914Z,98777.12
2018-09-14T02:13:17.171Z,98775.78
2018-09-14T02:15:45.395Z,98766.86
2018-09-14T02:18:13.623Z,98763.31
2018-09-14T02:20:41.839Z,98760.63
2018-09-14T02:23:10.095Z,98761.98
2018-09-14T02:25:38.323Z,98756.59
2018-09-14T02:28:06.747Z,98759.28
2018-09-14T02:30:34.946Z,98762.83
2018-09-14T02:33:03.246Z,98761.48
2018-09-14T02:35:31.445Z,98761.00
2018-09-14T02:37:59.687Z,98763.31
2018-09-14T02:40:28.018Z,98753.91
2018-09-14T02:42:56.334Z,98762.83
2018-09-14T02:45:24.531Z,98758.03
2018-09-14T02:47:52.726Z,98755.74
2018-09-14T02:50:20.970Z,98760.14
2018-09-14T02:52:49.235Z,98757.94
2018-09-14T02:55:17.512Z,98757.94
2018-09-14T02:57:45.707Z,98760.63
2018-09-14T03:00:14.049Z,98763.69
2018-09-14T03:02:42.212Z,98759.28
2018-09-14T03:05:10.891Z,98753.91
2018-09-14T03:07:39.092Z,98760.63
2018-09-14T03:10:07.348Z,98752.56
2018-09-14T03:12:35.528Z,98759.77
2018-09-14T03:15:03.767Z,98757.58
2018-09-14T03:17:32.003Z,98759.66
2018-09-14T03:20:00.206Z,98754.39
2018-09-14T03:22:28.532Z,98761.48
2018-09-14T03:24:56.821Z,98756.59
2018-09-14T03:27:25.011Z,98754.89
2018-09-14T03:29:53.251Z,98755.74
2018-09-14T03:32:21.568Z,98754.89
2018-09-14T03:34:49.724Z,98755.25
2018-09-14T03:37:17.974Z,98755.25
2018-09-14T03:39:46.267Z,98754.48
2018-09-14T03:42:14.479Z,98758.92
2018-09-14T03:44:42.776Z,98756.23
2018-09-14T03:47:11.088Z,98756.23
2018-09-14T03:49:39.426Z,98751.22
2018-09-14T03:52:07.736Z,98756.11
2018-09-14T03:54:35.938Z,98760.63
2018-09-14T03:57:04.943Z,98756.59
2018-09-14T03:59:35.286Z,98756.11
2018-09-14T04:02:03.985Z,98759.66
2018-09-14T04:04:32.203Z,98756.97
2018-09-14T04:07:00.624Z,98757.45
2018-09-14T04:09:29.163Z,98751.22
2018-09-14T04:11:57.452Z,98756.11
2018-09-14T04:14:25.754Z,98760.63
2018-09-14T04:16:53.962Z,98757.94
2018-09-14T04:19:22.303Z,98756.59
2018-09-14T04:21:50.627Z,98756.23
2018-09-14T04:24:18.891Z,98756.59
2018-09-14T04:26:53.801Z,98754.89
2018-09-14T04:29:22.038Z,98760.14
2018-09-14T04:31:50.338Z,98755.25
2018-09-14T04:34:18.611Z,98755.25
2018-09-14T04:36:46.827Z,98758.92
2018-09-14T04:39:15.035Z,98763.31
2018-09-14T04:41:43.311Z,98763.31
2018-09-14T04:44:11.597Z,98760.27
2018-09-14T04:46:39.788Z,98764.75
2018-09-14T04:49:08.087Z,98761.61
2018-09-14T04:51:36.359Z,98763.41
2018-09-14T04:54:04.602Z,98763.81
2018-09-14T04:56:32.847Z,98768.33
2018-09-14T04:59:01.186Z,98769.67
2018-09-14T05:01:29.450Z,98774.66
2018-09-14T05:03:57.732Z,98778.20
2018-09-14T05:06:25.969Z,98777.34
2018-09-14T05:08:54.265Z,98781.87
2018-09-14T05:11:22.519Z,98780.34
2018-09-14T05:13:50.746Z,98784.06
2018-09-14T05:16:19.009Z,98793.88
2018-09-14T05:18:47.266Z,98795.22
2018-09-14T05:21:15.552Z,98788.10
2018-09-14T05:23:43.847Z,98792.90
2018-09-14T05:26:12.083Z,98794.82
2018-09-14T05:28:40.331Z,98795.22
2018-09-14T05:31:08.535Z,98792.98
2018-09-14T05:33:37.158Z,98799.25
2018-09-14T05:36:05.463Z,98799.25
2018-09-14T05:38:34.048Z,98800.59
2018-09-14T05:41:02.406Z,98803.66
2018-09-14T05:43:30.769Z,98805.86
2018-09-14T05:45:59.059Z,98808.05
2018-09-14T05:48:27.325Z,98804.14
2018-09-14T05:50:55.583Z,98807.69
2018-09-14T05:53:23.873Z,98806.83
2018-09-14T05:55:52.137Z,98812.70
2018-09-14T05:58:20.361Z,98812.20
2018-09-14T06:00:48.628Z,98814.05
2018-09-14T06:03:16.883Z,98820.77
2018-09-14T06:05:45.179Z,98816.73
2018-09-14T06:08:13.453Z,98820.77
2018-09-14T06:10:41.696Z,98818.44
2018-09-14T06:13:09.981Z,98825.16
2018-09-14T06:15:38.218Z,98829.20
2018-09-14T06:18:06.810Z,98829.69
2018-09-14T06:20:35.011Z,98833.23
2018-09-14T06:23:03.291Z,98828.83
2018-09-14T06:25:31.545Z,98828.83
2018-09-14T06:27:59.785Z,98840.94
2018-09-14T06:30:28.138Z,98840.05
2018-09-14T06:32:56.327Z,98838.24
2018-09-14T06:35:24.555Z,98835.55
2018-09-14T06:37:52.814Z,98835.16
2018-09-14T06:40:21.059Z,98831.52
2018-09-14T06:42:49.315Z,98832.47
2018-09-14T06:45:18.571Z,98840.05
2018-09-14T06:47:46.850Z,98832.47
2018-09-14T06:50:15.087Z,98834.20
2018-09-14T06:52:43.307Z,98832.87
2018-09-14T06:55:11.573Z,98824.80
2018-09-14T06:57:39.877Z,98822.56
2018-09-14T07:00:08.175Z,98817.19
2018-09-14T07:02:36.330Z,98815.39
2018-09-14T07:05:04.633Z,98825.25
2018-09-14T07:07:32.860Z,98824.80
2018-09-14T07:10:01.119Z,98823.05
2018-09-14T07:12:29.364Z,98821.71
2018-09-14T07:14:57.587Z,98828.83
2018-09-14T07:17:25.843Z,98831.52
2018-09-14T07:19:54.106Z,98832.87
2018-09-14T07:22:22.443Z,98834.66
2018-09-14T07:24:50.865Z,98842.36
2018-09-14T07:27:18.964Z,98846.77
2018-09-14T07:29:47.195Z,98851.69
2018-09-14T07:32:15.385Z,98847.25
2018-09-14T07:34:43.603Z,98854.38
2018-09-14T07:37:11.911Z,98852.63
2018-09-14T07:39:40.158Z,98854.38
2018-09-14T07:42:08.409Z,98854.38
2018-09-14T07:44:36.623Z,98851.77
2018-09-14T07:47:04.904Z,98852.27
2018-09-14T07:49:33.403Z,98858.02
2018-09-14T07:52:01.657Z,98860.70
2018-09-14T07:54:29.894Z,98862.05
2018-09-14T07:56:58.103Z,98867.42
2018-09-14T07:59:26.335Z,98866.08
2018-09-14T08:01:54.575Z,98868.77
2018-09-14T08:04:22.835Z,98867.42
2018-09-14T08:06:51.035Z,98870.59
2018-09-14T08:09:19.269Z,98870.11
2018-09-14T08:11:47.653Z,98868.77
2018-09-14T08:14:15.867Z,98871.45
2018-09-14T08:16:44.063Z,98869.62
2018-09-14T08:19:12.278Z,98871.45
2018-09-14T08:21:40.576Z,98874.14
2018-09-14T08:24:08.822Z,98872.31
2018-09-14T08:26:37.139Z,98879.16
2018-09-14T08:29:05.391Z,98878.66
2018-09-14T08:31:33.654Z,98873.28
2018-09-14T08:34:01.916Z,98881.27
2018-09-14T08:36:30.150Z,98883.95
2018-09-14T08:38:58.395Z,98881.72
2018-09-14T08:41:26.677Z,98887.09
2018-09-14T08:43:54.983Z,98889.33
2018-09-14T08:46:23.245Z,98891.13
2018-09-14T08:48:51.478Z,98896.52
2018-09-14T08:51:19.740Z,98889.42
2018-09-14T08:53:47.944Z,98901.52
2018-09-14T08:56:16.171Z,98900.66
2018-09-14T08:58:51.017Z,98902.38
2018-09-14T09:01:19.313Z,98904.20
2018-09-14T09:03:47.692Z,98903.72
2018-09-14T09:06:15.886Z,98902.38
2018-09-14T09:08:44.188Z,98905.06
2018-09-14T09:11:12.401Z,98909.09
2018-09-14T09:13:40.672Z,98913.53
2018-09-14T09:16:08.913Z,98909.50
2018-09-14T09:18:37.171Z,98904.13
2018-09-14T09:21:05.385Z,98909.50
2018-09-14T09:23:33.714Z,98907.38
2018-09-14T09:26:02.051Z,98907.27
2018-09-14T09:28:30.305Z,98910.45
2018-09-14T09:30:58.574Z,98911.70
2018-09-14T09:33:26.895Z,98905.92
2018-09-14T09:35:55.157Z,98907.18
2018-09-14T09:38:23.405Z,98908.61
2018-09-14T09:40:51.715Z,98910.84
2018-09-14T09:43:20.026Z,98911.78
2018-09-14T09:45:48.249Z,98911.30
2018-09-14T09:48:16.468Z,98917.56
2018-09-14T09:50:44.780Z,98906.41
2018-09-14T09:53:13.022Z,98910.84
2018-09-14T09:55:41.223Z,98909.95
2018-09-14T09:58:09.438Z,98911.70
2018-09-14T10:00:46.854Z,98906.81
2018-09-14T10:03:17.123Z,98904.13
2018-09-14T10:05:50.665Z,98908.16
2018-09-14T10:08:18.927Z,98904.98
2018-09-14T10:10:47.198Z,98905.47
2018-09-14T10:13:15.422Z,98908.16
2018-09-14T10:15:43.713Z,98901.80
2018-09-14T10:18:11.965Z,98909.38
2018-09-14T10:20:40.280Z,98906.81
2018-09-14T10:23:08.490Z,98902.29
2018-09-14T10:25:36.720Z,98903.14
2018-09-14T10:28:04.935Z,98906.32
2018-09-14T10:30:33.217Z,98902.29
2018-09-14T10:33:01.474Z,98906.69
2018-09-14T10:35:29.707Z,98904.48
2018-09-14T10:37:57.939Z,98904.48
2018-09-14T10:40:26.325Z,98899.11
2018-09-14T10:42:54.543Z,98896.91
2018-09-14T10:45:22.818Z,98898.74
2018-09-14T10:47:50.931Z,98894.22
2018-09-14T10:50:19.299Z,98888.84
2018-09-14T10:52:47.684Z,98888.84
2018-09-14T10:55:16.024Z,98885.18
2018-09-14T10:57:44.251Z,98885.18
2018-09-14T11:00:12.538Z,98888.72
2018-09-14T11:02:40.731Z,98883.47
2018-09-14T11:05:09.034Z,98878.45
2018-09-14T11:07:37.256Z,98885.58
2018-09-14T11:10:05.745Z,98881.63
2018-09-14T11:12:34.000Z,98880.66
2018-09-14T11:15:02.191Z,98877.97
2018-09-14T11:17:30.473Z,98882.48
2018-09-14T11:19:58.707Z,98884.69
2018-09-14T11:22:26.985Z,98883.75
2018-09-14T11:24:55.298Z,98874.91
2018-09-14T11:27:23.433Z,98879.80
2018-09-14T11:29:51.682Z,98875.28
2018-09-14T11:32:20.099Z,98873.08
2018-09-14T11:34:48.359Z,98871.73
2018-09-14T11:37:16.672Z,98871.25
2018-09-14T11:39:44.953Z,98872.59
2018-09-14T11:42:13.255Z,98872.59
2018-09-14T11:44:41.543Z,98864.16
2018-09-14T11:47:09.924Z,98863.67
2018-09-14T11:49:38.355Z,98858.29
2018-09-14T11:52:06.890Z,98864.92
2018-09-14T11:54:35.147Z,98860.13
2018-09-14T11:57:03.399Z,98860.98
2018-09-14T11:59:31.628Z,98848.88
2018-09-14T12:01:59.974Z,98847.05
2018-09-14T12:04:28.340Z,98848.02
2018-09-14T12:06:56.653Z,98847.53
2018-09-14T12:09:24.898Z,98850.22
2018-09-14T12:11:53.215Z,98846.31
2018-09-14T12:14:22.717Z,98848.51
2018-09-14T12:16:52.124Z,98847.16
2018-09-14T12:19:20.619Z,98843.63
2018-09-14T12:21:48.987Z,98844.97
2018-09-14T12:24:17.458Z,98846.67
2018-09-14T12:26:45.684Z,98838.24
2018-09-14T12:29:16.047Z,98835.92
2018-09-14T12:31:44.293Z,98833.59
2018-09-14T12:34:13.050Z,98831.80
2018-09-14T12:36:42.240Z,98826.42
2018-09-14T12:39:10.977Z,98833.02
2018-09-14T12:41:39.989Z,98830.45
2018-09-14T12:44:11.808Z,98828.63
2018-09-14T12:46:40.009Z,98823.24
2018-09-14T12:49:08.274Z,98824.59
2018-09-14T12:51:36.514Z,98823.24
2018-09-14T12:54:04.737Z,98827.27
2018-09-14T12:56:32.997Z,98825.93
2018-09-14T12:59:03.176Z,98825.08
2018-09-14T13:01:32.605Z,98826.42
2018-09-14T13:04:01.947Z,98819.70
2018-09-14T13:06:30.147Z,98821.05
2018-09-14T13:08:58.427Z,98820.55
2018-09-14T13:11:26.945Z,98822.27
2018-09-14T13:13:55.170Z,98819.20
2018-09-14T13:16:23.392Z,98815.66
2018-09-14T13:18:51.655Z,98816.61
2018-09-14T13:21:19.914Z,98811.72
2018-09-14T13:23:48.192Z,98812.58
2018-09-14T13:26:17.150Z,98803.93
2018-09-14T13:28:45.427Z,98808.45
2018-09-14T13:31:13.696Z,98803.93
2018-09-14T13:33:44.077Z,98801.33
2018-09-14T13:36:12.234Z,98802.22
2018-09-14T13:38:40.525Z,98798.64
2018-09-14T13:41:08.791Z,98790.58
2018-09-14T13:43:37.039Z,98790.58
2018-09-14T13:46:05.318Z,98791.92
2018-09-14T13:48:33.587Z,98789.23
2018-09-14T13:51:01.938Z,98787.03
2018-09-14T13:53:30.175Z,98791.92
2018-09-14T13:55:58.552Z,98780.31
2018-09-14T13:58:26.845Z,98783.00
2018-09-14T14:00:55.111Z,98783.48
2018-09-14T14:03:23.389Z,98783.00
2018-09-14T14:05:51.634Z,98789.23
2018-09-14T14:08:19.900Z,98780.80
2018-09-14T14:10:48.183Z,98779.45
2018-09-14T14:13:16.435Z,98780.31
2018-09-14T14:15:44.675Z,98784.83
2018-09-14T14:18:12.894Z,98783.00
2018-09-14T14:20:41.203Z,98779.82
2018-09-14T14:23:09.485Z,98777.12
2018-09-14T14:25:37.717Z,98772.23
2018-09-14T14:28:06.023Z,98770.90
2018-09-14T14:30:34.363Z,98765.52
2018-09-14T14:33:02.628Z,98761.98
2018-09-14T14:35:30.855Z,98757.94
2018-09-14T14:37:59.193Z,98764.17
2018-09-14T14:40:27.467Z,98763.31
2018-09-14T14:42:55.699Z,98764.66
2018-09-14T14:45:23.934Z,98762.47
2018-09-14T14:47:52.209Z,98762.83
2018-09-14T14:52:43.086Z,98767.36
2018-09-14T14:55:11.347Z,98769.55
2018-09-14T14:57:39.610Z,98763.81
2018-09-14T15:00:07.925Z,98761.13
2018-09-14T15:02:36.189Z,98762.95
2018-09-14T15:05:04.486Z,98756.23
2018-09-14T15:07:32.888Z,98757.94
2018-09-14T15:10:01.191Z,98755.74
2018-09-14T15:12:29.490Z,98758.92
2018-09-14T15:14:57.674Z,98754.89
2018-09-14T15:17:25.992Z,98761.13
2018-09-14T15:19:54.265Z,98760.27
2018-09-14T15:22:22.526Z,98760.27
2018-09-14T15:24:50.779Z,98756.23
2018-09-14T15:27:19.008Z,98753.14
2018-09-14T15:29:47.297Z,98757.18
2018-09-14T15:32:15.593Z,98756.69
2018-09-14T15:34:43.803Z,98761.61
2018-09-14T15:37:12.125Z,98760.27
2018-09-14T15:39:40.385Z,98759.37
2018-09-14T15:42:08.641Z,98761.21
2018-09-14T15:44:36.931Z,98754.48
2018-09-14T15:47:05.221Z,98760.63
2018-09-14T15:49:33.468Z,98755.25
2018-09-14T15:52:01.674Z,98752.56
2018-09-14T15:54:29.956Z,98762.83
2018-09-14T15:56:58.242Z,98759.28
2018-09-14T15:59:26.480Z,98757.45
2018-09-14T16:01:54.873Z,98749.88
2018-09-14T16:04:23.185Z,98756.59
2018-09-14T16:06:51.492Z,98752.93
2018-09-14T16:09:19.777Z,98760.63
2018-09-14T16:11:48.081Z,98762.73
2018-09-14T16:14:16.384Z,98759.20
2018-09-14T16:16:44.619Z,98763.23
2018-09-14T16:19:12.907Z,98763.50
2018-09-14T16:21:41.209Z,98770.23
2018-09-14T16:24:09.526Z,98771.08
2018-09-14T16:26:37.747Z,98776.34
2018-09-14T16:29:06.012Z,98771.36
2018-09-14T16:31:34.667Z,98767.32
2018-09-14T16:34:02.958Z,98767.32
2018-09-14T16:36:31.279Z,98766.89
2018-09-14T16:38:59.618Z,98771.91
2018-09-14T16:41:27.901Z,98773.25
2018-09-14T16:43:56.160Z,98774.96
2018-09-14T16:46:24.426Z,98778.62
2018-09-14T16:48:52.653Z,98775.94
2018-09-14T16:51:20.910Z,98775.45
2018-09-14T16:53:49.150Z,98788.77
2018-09-14T16:56:17.383Z,98781.69
2018-09-14T16:58:45.586Z,98771.41
2018-09-14T17:01:13.850Z,98768.33
2018-09-14T17:03:42.236Z,98768.45
2018-09-14T17:06:10.526Z,98764.91
2018-09-14T17:08:38.837Z,98765.86
2018-09-14T17:11:07.121Z,98765.00
2018-09-14T17:13:35.308Z,98770.86
2018-09-14T17:16:03.552Z,98770.86
2018-09-14T17:18:31.837Z,98773.06
2018-09-14T17:21:00.102Z,98769.52
2018-09-14T17:23:28.357Z,98774.50
2018-09-14T17:25:56.570Z,98781.63
2018-09-14T17:28:24.982Z,98783.91
2018-09-14T17:30:53.279Z,98786.15
2018-09-14T17:33:21.623Z,98789.30
2018-09-14T17:35:49.845Z,98790.64
2018-09-14T17:38:18.117Z,98792.47
2018-09-14T17:40:46.389Z,98792.38
2018-09-14T17:43:14.630Z,98790.18
2018-09-14T17:45:42.894Z,98787.00
2018-09-14T17:48:11.145Z,98782.48
2018-09-14T17:50:39.406Z,98790.55
2018-09-14T17:53:07.628Z,98791.98
2018-09-14T17:55:35.842Z,98793.33
2018-09-14T17:58:04.085Z,98803.14
2018-09-14T18:00:32.350Z,98809.38
2018-09-14T18:03:00.596Z,98801.39
2018-09-14T18:05:28.856Z,98809.38
2018-09-14T18:07:57.072Z,98807.66
2018-09-14T18:10:25.330Z,98809.46
2018-09-14T18:12:53.624Z,98816.19
2018-09-14T18:15:21.875Z,98822.45
2018-09-14T18:17:50.166Z,98825.14
2018-09-14T18:20:18.414Z,98818.88
2018-09-14T18:22:46.685Z,98830.03
2018-09-14T18:25:15.523Z,98838.59
2018-09-14T18:27:43.795Z,98838.59
2018-09-14T18:30:12.014Z,98835.02
2018-09-14T18:32:40.249Z,98842.63
2018-09-14T18:35:08.483Z,98836.84
2018-09-14T18:37:36.769Z,98835.98
2018-09-14T18:40:05.146Z,98842.22
2018-09-14T18:42:33.454Z,98834.64
2018-09-14T18:45:01.710Z,98839.05
2018-09-14T18:47:30.019Z,98841.27
2018-09-14T18:49:58.362Z,98837.61
2018-09-14T18:52:26.692Z,98839.94
2018-09-14T18:54:55.087Z,98850.56
2018-09-14T18:57:23.392Z,98844.24
2018-09-14T18:59:51.676Z,98844.70
2018-09-14T19:02:19.890Z,98849.13
2018-09-14T19:04:48.177Z,98849.71
2018-09-14T19:07:16.473Z,98847.39
2018-09-14T19:09:44.745Z,98847.39
2018-09-14T19:12:13.081Z,98853.66
2018-09-14T19:14:41.442Z,98854.11
2018-09-14T19:17:09.763Z,98861.72
2018-09-14T19:19:38.055Z,98866.22
2018-09-14T19:22:06.433Z,98865.36
2018-09-14T19:24:34.767Z,98864.87
2018-09-14T19:27:03.065Z,98868.45
2018-09-14T19:29:31.333Z,98870.25
2018-09-14T19:31:59.604Z,98874.68
2018-09-14T19:34:27.912Z,98875.54
2018-09-14T19:36:56.177Z,98873.70
2018-09-14T19:39:24.451Z,98877.86
2018-09-14T19:41:52.661Z,98869.79
2018-09-14T19:44:21.012Z,98869.39
2018-09-14T19:46:49.275Z,98872.94
2018-09-14T19:49:17.601Z,98869.39
2018-09-14T19:51:45.895Z,98870.25
2018-09-14T19:54:14.189Z,98874.28
2018-09-14T19:56:42.467Z,98870.25
2018-09-14T19:59:10.737Z,98863.16
2018-09-14T20:01:39.018Z,98867.47
2018-09-14T20:04:07.243Z,98867.38
2018-09-14T20:06:35.522Z,98866.03
2018-09-14T20:09:05.030Z,98871.78
2018-09-14T20:11:33.288Z,98872.77
2018-09-14T20:14:01.552Z,98866.49
2018-09-14T20:16:29.852Z,98862.95
2018-09-14T20:18:58.143Z,98871.02
2018-09-14T20:21:26.486Z,98868.45
2018-09-14T20:23:54.806Z,98870.92
2018-09-14T20:26:23.087Z,98870.16
2018-09-14T20:28:51.381Z,98871.99
2018-09-14T20:31:19.613Z,98873.83
2018-09-14T20:33:47.874Z,98872.56
2018-09-14T20:36:16.119Z,98869.02
2018-09-14T20:38:44.361Z,98875.27
2018-09-14T20:41:12.692Z,98867.77
2018-09-14T20:43:41.097Z,98866.42
2018-09-14T20:46:09.317Z,98868.17
2018-09-14T20:48:37.657Z,98873.15
2018-09-14T20:51:05.923Z,98862.39
2018-09-14T20:53:34.213Z,98862.88
2018-09-14T20:56:02.487Z,98866.42
2018-09-14T20:58:30.708Z,98860.31
2018-09-14T21:00:58.910Z,98860.68
2018-09-14T21:03:27.136Z,98866.55
2018-09-14T21:05:55.484Z,98869.11
2018-09-14T21:08:23.701Z,98865.29
2018-09-14T21:10:51.991Z,98862.11
2018-09-14T21:13:20.227Z,98859.91
2018-09-14T21:15:48.464Z,98862.60
2018-09-14T21:18:16.680Z,98858.69
2018-09-14T21:20:44.925Z,98866.63
2018-09-14T21:23:13.185Z,98867.61
2018-09-14T21:25:41.452Z,98867.61
2018-09-14T21:28:09.712Z,98866.27
2018-09-14T21:30:37.991Z,98861.74
2018-09-14T21:33:06.313Z,98870.30
2018-09-14T21:35:34.580Z,98864.92
2018-09-14T21:38:02.856Z,98867.61
2018-09-14T21:40:31.233Z,98874.70
2018-09-14T21:42:59.448Z,98874.70
2018-09-14T21:45:27.694Z,98871.16
2018-09-14T21:47:55.975Z,98871.25
2018-09-14T21:50:24.215Z,98878.37
2018-09-14T21:52:52.480Z,98876.62
2018-09-14T21:55:20.809Z,98878.37
2018-09-14T21:57:49.095Z,98872.59
2018-09-14T22:00:22.911Z,98885.09
2018-09-14T22:02:51.230Z,98886.92
2018-09-14T22:05:19.519Z,98891.41
2018-09-14T22:07:47.832Z,98894.10
2018-09-14T22:10:16.112Z,98892.39
2018-09-14T22:12:44.356Z,98886.92
2018-09-14T22:15:12.611Z,98885.18
2018-09-14T22:17:40.997Z,98882.00
2018-09-14T22:20:09.339Z,98882.48
2018-09-14T22:22:37.582Z,98888.27
2018-09-14T22:25:05.947Z,98888.72
2018-09-14T22:27:34.267Z,98894.10
2018-09-14T22:30:02.837Z,98884.69
2018-09-14T22:32:31.132Z,98890.55
2018-09-14T22:34:59.434Z,98891.41
2018-09-14T22:37:27.699Z,98892.88
2018-09-14T22:39:56.060Z,98899.48
2018-09-14T22:42:24.313Z,98899.97
2018-09-14T22:44:52.539Z,98903.52
2018-09-14T22:47:20.763Z,98905.83
2018-09-14T22:49:48.975Z,98908.03
2018-09-14T22:52:17.211Z,98906.81
2018-09-14T22:54:45.435Z,98914.39
2018-09-14T22:57:13.704Z,98914.39
2018-09-14T22:59:41.959Z,98924.66
2018-09-14T23:02:10.142Z,98927.34
2018-09-14T23:04:38.429Z,98926.37
2018-09-14T23:07:06.795Z,98925.80
2018-09-14T23:09:35.103Z,98920.81
2018-09-14T23:12:03.509Z,98920.81
2018-09-14T23:14:31.738Z,98920.42
2018-09-14T23:16:59.974Z,98922.62
2018-09-14T23:19:28.273Z,98926.65
2018-09-14T23:21:56.542Z,98921.77
2018-09-14T23:24:25.480Z,98925.31
2018-09-14T23:26:53.770Z,98921.39
2018-09-14T23:29:22.022Z,98915.04
2018-09-14T23:31:50.282Z,98921.77
2018-09-14T23:34:18.546Z,98914.18
2018-09-14T23:36:46.825Z,98920.81
2018-09-14T23:39:15.102Z,98921.27
2018-09-14T23:41:43.321Z,98919.47
2018-09-14T23:44:11.533Z,98918.22
2018-09-14T23:46:39.773Z,98925.80
2018-09-14T23:49:08.185Z,98928.00
2018-09-14T23:51:36.429Z,98930.69
2018-09-14T23:54:04.654Z,98928.00
2018-09-14T23:56:32.906Z,98930.59
2018-09-14T23:59:01.183Z,98927.54
